Garneill, Montana
Current Conditions -  °F | °C
As of 3:54 PM on Saturday 25 Oct 2014 (Local Time) from KLWT Reporting Station
Clear Clear  
Wind Chill: 72°   Ceiling: Unl
Heat Index: 72°   Visibility: 10mi
Dew Point: 40°   Wind: 0mph
Humidity: 31%   Direction: NA
Pressure: 29.78"   Gusts: NA
Location:  46.75°N, 109.75°W
Report Text: KLWT 252154Z AUTO 00000KT 10SM CLR 22/04 A2978 RMK AO2 SLP065 T02220044
Loading
Personal Weather Stations






























Interactive Weather Map New forecast layout! Learn more

10-Day Weather Forecast

Advertisements
Track Severe Weather on mobile